New Orleans, Louisiana
Current Conditions -  °F | °C
As of 6:55 AM on Saturday 01 Nov 2014 (Local Time) from KVSH Reporting Station
Clear Clear  
Wind Chill:   Ceiling: Unl
Heat Index:   Visibility: 10mi
Dew Point: -6°   Wind: 10mph
Humidity: 37%   Direction: 10°N
Pressure: 30.31"   Gusts: 17mph
Location:  29.95°N, 90.08°W
Report Text: KVSH 011155Z AUTO 01009G15KT 10SM CLR 08/M06 A3031 RMK AO1 10140 20080 52030
Loading
Personal Weather Stations






























Interactive Weather Map
Tropical Storm Tracking
New forecast layout! Learn more

10-Day Weather Forecast

Advertisements
Track Severe Weather on mobile